createdAt,value
2019-03-31T00:05:05.821Z,100.00
2019-03-31T00:10:10.628Z,100.00
2019-03-31T00:15:15.231Z,100.00
2019-03-31T00:20:20.435Z,100.00
2019-03-31T00:25:25.027Z,100.00
2019-03-31T00:30:29.682Z,100.00
2019-03-31T00:35:34.248Z,100.00
2019-03-31T00:40:38.807Z,100.00
2019-03-31T00:45:43.382Z,100.00
2019-03-31T00:50:47.960Z,100.00
2019-03-31T00:55:52.537Z,100.00
2019-03-31T01:00:59.127Z,100.00
2019-03-31T01:06:04.666Z,100.00
2019-03-31T01:11:15.508Z,100.00
2019-03-31T01:16:20.756Z,100.00
2019-03-31T01:21:25.329Z,100.00
2019-03-31T01:26:30.025Z,100.00
2019-03-31T01:31:34.901Z,100.00
2019-03-31T01:36:39.490Z,100.00
2019-03-31T01:41:44.068Z,100.00
2019-03-31T01:46:48.640Z,100.00
2019-03-31T01:51:53.202Z,100.00
2019-03-31T01:56:57.815Z,100.00
2019-03-31T02:02:05.028Z,98.48
2019-03-31T02:07:09.574Z,95.60
2019-03-31T02:12:14.177Z,96.75
2019-03-31T02:17:18.803Z,95.99
2019-03-31T02:22:23.385Z,95.72
2019-03-31T02:27:27.957Z,95.14
2019-03-31T02:32:32.541Z,94.34
2019-03-31T02:37:37.442Z,92.35
2019-03-31T02:42:42.388Z,94.83
2019-03-31T02:47:47.980Z,95.60
2019-03-31T02:52:52.573Z,97.75
2019-03-31T02:57:57.348Z,99.08
2019-03-31T03:03:03.059Z,100.00
2019-03-31T03:08:09.072Z,100.00
2019-03-31T03:13:14.977Z,99.28
2019-03-31T03:18:19.536Z,100.00
2019-03-31T03:23:24.207Z,100.00
2019-03-31T03:28:28.850Z,100.00
2019-03-31T03:33:33.454Z,100.00
2019-03-31T03:38:37.983Z,100.00
2019-03-31T03:43:54.919Z,100.00
2019-03-31T03:48:49.275Z,100.00
2019-03-31T03:53:53.864Z,100.00
2019-03-31T03:58:58.433Z,100.00
2019-03-31T04:04:04.909Z,100.00
2019-03-31T04:09:09.591Z,100.00
2019-03-31T04:14:14.141Z,100.00
2019-03-31T04:19:18.669Z,100.00
2019-03-31T04:24:23.561Z,100.00
2019-03-31T04:29:28.196Z,100.00
2019-03-31T04:34:32.742Z,100.00
2019-03-31T04:39:37.344Z,100.00
2019-03-31T04:44:41.968Z,100.00
2019-03-31T04:49:46.532Z,100.00
2019-03-31T04:54:51.139Z,100.00
2019-03-31T04:59:55.736Z,100.00
2019-03-31T05:05:00.470Z,100.00
2019-03-31T05:10:08.502Z,100.00
2019-03-31T05:15:13.126Z,100.00
2019-03-31T05:20:17.755Z,100.00
2019-03-31T05:25:22.297Z,100.00
2019-03-31T05:30:26.840Z,100.00
2019-03-31T05:35:31.444Z,100.00
2019-03-31T05:40:36.085Z,99.64
2019-03-31T05:45:40.719Z,98.28
2019-03-31T05:50:45.599Z,93.89
2019-03-31T05:55:50.196Z,92.69
2019-03-31T06:00:55.040Z,92.65
2019-03-31T06:05:59.647Z,92.95
2019-03-31T06:11:04.528Z,95.42
2019-03-31T06:16:09.175Z,96.30
2019-03-31T06:21:14.003Z,97.21
2019-03-31T06:26:18.561Z,97.37
2019-03-31T06:31:23.227Z,96.09
2019-03-31T06:36:27.818Z,94.62
2019-03-31T06:41:32.388Z,94.08
2019-03-31T06:46:36.990Z,92.44
2019-03-31T06:51:41.662Z,90.76
2019-03-31T06:56:47.177Z,87.84
2019-03-31T07:01:52.154Z,86.30
2019-03-31T07:06:56.863Z,83.81
2019-03-31T07:12:01.622Z,83.23
2019-03-31T07:17:06.193Z,82.11
2019-03-31T07:22:11.001Z,82.59
2019-03-31T07:27:15.637Z,82.53
2019-03-31T07:32:20.435Z,79.58
2019-03-31T07:37:25.031Z,79.75
2019-03-31T07:42:30.056Z,78.69
2019-03-31T07:47:34.875Z,77.39
2019-03-31T07:52:39.461Z,77.39
2019-03-31T07:57:44.195Z,74.06
2019-03-31T08:02:48.755Z,71.32
2019-03-31T08:07:53.353Z,73.92
2019-03-31T08:12:57.983Z,72.64
2019-03-31T08:18:20.575Z,72.86
2019-03-31T08:23:25.229Z,75.22
2019-03-31T08:28:29.848Z,74.85
2019-03-31T08:33:34.413Z,73.59
2019-03-31T08:38:39.011Z,73.55
2019-03-31T08:43:43.585Z,72.74
2019-03-31T08:48:48.209Z,73.75
2019-03-31T08:53:52.837Z,71.53
2019-03-31T08:58:57.456Z,68.69
2019-03-31T09:04:02.023Z,70.26
2019-03-31T09:09:07.998Z,69.51
2019-03-31T09:14:12.582Z,68.52
2019-03-31T09:19:17.229Z,71.50
2019-03-31T09:24:21.809Z,72.22
2019-03-31T09:29:26.356Z,70.94
2019-03-31T09:34:37.200Z,67.87
2019-03-31T09:39:41.754Z,69.11
2019-03-31T09:44:46.808Z,72.56
2019-03-31T09:49:57.554Z,73.74
2019-03-31T09:55:02.786Z,76.08
2019-03-31T10:00:08.194Z,74.36
2019-03-31T10:05:13.400Z,74.27
2019-03-31T10:10:36.994Z,74.94
2019-03-31T10:15:41.616Z,72.23
2019-03-31T10:20:46.254Z,69.77
2019-03-31T10:25:50.919Z,67.68
2019-03-31T10:30:55.497Z,65.91
2019-03-31T10:36:00.289Z,62.29
2019-03-31T10:41:04.945Z,59.34
2019-03-31T10:46:09.540Z,57.89
2019-03-31T10:51:14.166Z,58.60
2019-03-31T10:56:18.746Z,58.69
2019-03-31T11:01:23.379Z,54.21
2019-03-31T11:06:27.993Z,50.85
2019-03-31T11:11:32.621Z,50.97
2019-03-31T11:16:37.190Z,50.38
2019-03-31T11:21:41.859Z,53.20
2019-03-31T11:26:46.372Z,55.46
2019-03-31T11:31:51.281Z,55.42
2019-03-31T11:36:55.995Z,55.26
2019-03-31T11:42:00.710Z,52.85
2019-03-31T11:47:05.854Z,50.24
2019-03-31T11:52:10.467Z,47.60
2019-03-31T11:57:17.528Z,55.52
2019-03-31T12:02:27.497Z,51.61
2019-03-31T12:07:28.761Z,48.21
2019-03-31T12:12:33.488Z,52.05
2019-03-31T12:17:38.112Z,51.64
2019-03-31T12:22:42.735Z,51.56
2019-03-31T12:27:47.293Z,51.95
2019-03-31T12:32:51.897Z,50.42
2019-03-31T12:37:56.653Z,45.04
2019-03-31T12:43:01.254Z,43.17
2019-03-31T12:48:05.963Z,42.34
2019-03-31T12:53:10.621Z,40.45
2019-03-31T12:58:15.343Z,43.50
2019-03-31T13:03:20.209Z,44.13
2019-03-31T13:08:24.776Z,45.78
2019-03-31T13:13:29.447Z,46.02
2019-03-31T13:18:34.065Z,45.12
2019-03-31T13:23:38.989Z,43.58
2019-03-31T13:28:43.785Z,42.94
2019-03-31T13:33:49.412Z,40.75
2019-03-31T13:38:54.445Z,38.40
2019-03-31T13:43:59.001Z,39.12
2019-03-31T13:49:03.600Z,38.47
2019-03-31T13:54:08.217Z,41.50
2019-03-31T13:59:12.935Z,41.16
2019-03-31T14:04:17.490Z,40.56
2019-03-31T14:09:22.431Z,40.20
2019-03-31T14:14:27.004Z,39.76
2019-03-31T14:19:31.604Z,40.44
2019-03-31T14:24:36.487Z,40.35
2019-03-31T14:29:42.586Z,40.00
2019-03-31T14:34:47.287Z,40.07
2019-03-31T14:39:51.823Z,41.78
2019-03-31T14:44:56.412Z,38.60
2019-03-31T14:50:01.036Z,38.88
2019-03-31T14:55:05.802Z,38.46
2019-03-31T15:00:15.212Z,36.78
2019-03-31T15:05:16.780Z,36.22
2019-03-31T15:10:21.733Z,36.46
2019-03-31T15:15:26.387Z,36.52
2019-03-31T15:20:31.171Z,37.01
2019-03-31T15:25:35.862Z,37.80
2019-03-31T15:30:40.522Z,38.38
2019-03-31T15:35:45.162Z,40.38
2019-03-31T15:40:49.794Z,40.83
2019-03-31T15:45:54.407Z,40.31
2019-03-31T15:50:59.073Z,39.12
2019-03-31T15:56:03.772Z,39.17
2019-03-31T16:01:08.437Z,40.27
2019-03-31T16:06:14.202Z,41.02
2019-03-31T16:11:18.555Z,41.79
2019-03-31T16:16:22.786Z,40.44
2019-03-31T16:21:27.301Z,41.45
2019-03-31T16:26:32.480Z,41.59
2019-03-31T16:31:38.638Z,41.30
2019-03-31T16:36:42.895Z,41.02
2019-03-31T16:41:47.172Z,39.77
2019-03-31T16:46:51.546Z,39.88
2019-03-31T16:51:56.024Z,39.22
2019-03-31T16:57:00.296Z,38.01
2019-03-31T17:02:04.821Z,38.65
2019-03-31T17:07:09.057Z,39.83
2019-03-31T17:12:13.447Z,39.71
2019-03-31T17:17:17.701Z,39.24
2019-03-31T17:22:22.070Z,40.20
2019-03-31T17:27:26.309Z,41.42
2019-03-31T17:32:30.499Z,40.50
2019-03-31T17:37:34.631Z,41.06
2019-03-31T17:42:56.311Z,41.57
2019-03-31T17:48:09.470Z,42.34
2019-03-31T17:53:31.508Z,42.90
2019-03-31T17:58:53.339Z,44.18
2019-03-31T18:03:57.517Z,44.83
2019-03-31T18:09:01.942Z,44.68
2019-03-31T18:14:06.919Z,45.23
2019-03-31T18:19:11.172Z,45.39
2019-03-31T18:24:15.297Z,46.65
2019-03-31T18:29:19.598Z,46.43
2019-03-31T18:34:25.727Z,47.20
2019-03-31T18:39:29.849Z,48.04
2019-03-31T18:44:34.704Z,48.66
2019-03-31T18:49:42.675Z,49.52
2019-03-31T18:54:47.216Z,49.48
2019-03-31T18:59:51.566Z,49.82
2019-03-31T19:04:56.292Z,50.33
2019-03-31T19:10:01.315Z,50.83
2019-03-31T19:15:06.032Z,50.98
2019-03-31T19:20:10.993Z,51.27
2019-03-31T19:25:15.315Z,52.29
2019-03-31T19:30:19.653Z,54.84
2019-03-31T19:35:23.876Z,54.78
2019-03-31T19:40:28.149Z,53.70
2019-03-31T19:45:32.619Z,53.73
2019-03-31T19:50:37.616Z,53.76
2019-03-31T19:55:47.043Z,54.35
2019-03-31T20:00:59.567Z,55.49
2019-03-31T20:06:09.489Z,53.58
2019-03-31T20:11:57.849Z,53.57
2019-03-31T20:17:13.604Z,56.46
2019-03-31T20:22:21.700Z,57.68
2019-03-31T20:27:28.898Z,58.08
2019-03-31T20:32:35.890Z,60.35
2019-03-31T20:37:42.761Z,57.80
2019-03-31T20:43:16.069Z,54.44
2019-03-31T20:48:23.693Z,52.49
2019-03-31T20:53:33.978Z,52.50
2019-03-31T20:58:49.508Z,52.66
2019-03-31T21:03:58.707Z,53.15
2019-03-31T21:09:14.901Z,52.89
2019-03-31T21:14:25.560Z,53.49
2019-03-31T21:19:41.843Z,53.18
2019-03-31T21:24:51.409Z,53.41
2019-03-31T21:29:57.675Z,54.03
2019-03-31T21:35:03.599Z,54.73
2019-03-31T21:40:09.269Z,55.11
2019-03-31T21:45:15.300Z,55.66
2019-03-31T21:50:20.530Z,58.10
2019-03-31T21:55:27.191Z,60.78
2019-03-31T22:00:33.887Z,61.46
2019-03-31T22:05:38.514Z,61.82
2019-03-31T22:10:43.117Z,63.44
2019-03-31T22:15:47.188Z,64.17
2019-03-31T22:20:53.681Z,67.04
2019-03-31T22:25:59.192Z,68.35
2019-03-31T22:31:05.591Z,69.92
2019-03-31T22:36:12.852Z,69.83
2019-03-31T22:41:20.508Z,71.54
2019-03-31T22:46:28.763Z,72.90
2019-03-31T22:51:35.933Z,73.64
2019-03-31T22:56:42.637Z,77.17
2019-03-31T23:01:47.217Z,77.65
2019-03-31T23:06:51.246Z,75.42
2019-03-31T23:11:55.259Z,73.38
2019-03-31T23:16:59.255Z,74.41
2019-03-31T23:22:05.071Z,76.06
2019-03-31T23:27:09.124Z,77.63
2019-03-31T23:32:13.149Z,78.64
2019-03-31T23:37:17.243Z,79.52
2019-03-31T23:42:21.286Z,80.76
2019-03-31T23:47:25.339Z,81.95
2019-03-31T23:52:29.378Z,82.34
2019-03-31T23:57:33.383Z,83.01
